sensor_id;sensor_type;location;lat;lon;timestamp;P1;durP1;ratioP1;P2;durP2;ratioP2
31128;SDS011;17777;48.770;8.944;2024-03-23T00:54:03;6.53;;;2.70;;
31128;SDS011;17777;48.770;8.944;2024-03-23T00:56:29;3.20;;;2.40;;
31128;SDS011;17777;48.770;8.944;2024-03-23T00:58:55;5.75;;;2.85;;
31128;SDS011;17777;48.770;8.944;2024-03-23T01:01:21;3.80;;;2.55;;
31128;SDS011;17777;48.770;8.944;2024-03-23T01:03:46;3.95;;;2.80;;
31128;SDS011;17777;48.770;8.944;2024-03-23T01:06:12;3.33;;;2.38;;
31128;SDS011;17777;48.770;8.944;2024-03-23T01:08:38;3.67;;;2.42;;
31128;SDS011;17777;48.770;8.944;2024-03-23T01:11:04;2.47;;;2.17;;
31128;SDS011;17777;48.770;8.944;2024-03-23T01:13:29;2.97;;;2.30;;
31128;SDS011;17777;48.770;8.944;2024-03-23T01:15:56;3.28;;;2.15;;
31128;SDS011;17777;48.770;8.944;2024-03-23T01:18:23;2.10;;;1.90;;
31128;SDS011;17777;48.770;8.944;2024-03-23T01:20:51;2.33;;;1.85;;
31128;SDS011;17777;48.770;8.944;2024-03-23T01:23:17;3.33;;;2.22;;
31128;SDS011;17777;48.770;8.944;2024-03-23T01:25:42;2.13;;;1.88;;
31128;SDS011;17777;48.770;8.944;2024-03-23T01:28:08;2.53;;;1.95;;
31128;SDS011;17777;48.770;8.944;2024-03-23T01:30:34;2.95;;;2.38;;
31128;SDS011;17777;48.770;8.944;2024-03-23T01:33:01;2.10;;;1.70;;
31128;SDS011;17777;48.770;8.944;2024-03-23T01:35:27;2.40;;;1.70;;
31128;SDS011;17777;48.770;8.944;2024-03-23T01:37:54;2.50;;;1.75;;
31128;SDS011;17777;48.770;8.944;2024-03-23T01:40:20;2.85;;;1.60;;
31128;SDS011;17777;48.770;8.944;2024-03-23T01:42:58;2.03;;;1.50;;
31128;SDS011;17777;48.770;8.944;2024-03-23T01:45:30;1.30;;;1.17;;
31128;SDS011;17777;48.770;8.944;2024-03-23T01:47:56;1.20;;;1.10;;
31128;SDS011;17777;48.770;8.944;2024-03-23T01:50:23;1.60;;;1.17;;
31128;SDS011;17777;48.770;8.944;2024-03-23T01:52:49;1.75;;;1.40;;
31128;SDS011;17777;48.770;8.944;2024-03-23T01:55:16;2.08;;;1.30;;
31128;SDS011;17777;48.770;8.944;2024-03-23T01:57:42;2.50;;;1.50;;
31128;SDS011;17777;48.770;8.944;2024-03-23T02:00:08;2.03;;;1.40;;
31128;SDS011;17777;48.770;8.944;2024-03-23T02:02:43;3.55;;;1.35;;
31128;SDS011;17777;48.770;8.944;2024-03-23T02:05:13;1.30;;;1.13;;
31128;SDS011;17777;48.770;8.944;2024-03-23T02:07:40;1.45;;;1.17;;
31128;SDS011;17777;48.770;8.944;2024-03-23T02:10:08;1.50;;;1.17;;
31128;SDS011;17777;48.770;8.944;2024-03-23T02:12:35;3.28;;;1.48;;
31128;SDS011;17777;48.770;8.944;2024-03-23T02:15:01;1.70;;;1.48;;
31128;SDS011;17777;48.770;8.944;2024-03-23T02:17:29;1.35;;;1.23;;
31128;SDS011;17777;48.770;8.944;2024-03-23T02:19:59;1.67;;;1.20;;
31128;SDS011;17777;48.770;8.944;2024-03-23T02:22:35;1.70;;;1.33;;
31128;SDS011;17777;48.770;8.944;2024-03-23T02:25:05;1.85;;;1.20;;
31128;SDS011;17777;48.770;8.944;2024-03-23T02:27:31;2.10;;;1.15;;
31128;SDS011;17777;48.770;8.944;2024-03-23T02:29:59;1.48;;;1.10;;
31128;SDS011;17777;48.770;8.944;2024-03-23T02:32:25;3.10;;;1.23;;
31128;SDS011;17777;48.770;8.944;2024-03-23T02:34:51;2.15;;;1.13;;
31128;SDS011;17777;48.770;8.944;2024-03-23T02:37:17;1.88;;;1.45;;
31128;SDS011;17777;48.770;8.944;2024-03-23T02:39:42;1.30;;;1.15;;
31128;SDS011;17777;48.770;8.944;2024-03-23T02:42:08;1.65;;;1.30;;
31128;SDS011;17777;48.770;8.944;2024-03-23T02:44:34;1.67;;;1.20;;
31128;SDS011;17777;48.770;8.944;2024-03-23T02:47:00;1.65;;;1.10;;
31128;SDS011;17777;48.770;8.944;2024-03-23T02:49:26;1.60;;;1.25;;
31128;SDS011;17777;48.770;8.944;2024-03-23T02:51:52;2.33;;;1.20;;
31128;SDS011;17777;48.770;8.944;2024-03-23T02:54:18;2.15;;;1.08;;
31128;SDS011;17777;48.770;8.944;2024-03-23T02:56:44;1.40;;;1.10;;
31128;SDS011;17777;48.770;8.944;2024-03-23T02:59:09;2.15;;;1.30;;
31128;SDS011;17777;48.770;8.944;2024-03-23T03:01:35;2.05;;;1.25;;
31128;SDS011;17777;48.770;8.944;2024-03-23T03:04:01;2.38;;;1.30;;
31128;SDS011;17777;48.770;8.944;2024-03-23T03:06:27;1.67;;;1.08;;
31128;SDS011;17777;48.770;8.944;2024-03-23T03:08:54;1.45;;;1.30;;
31128;SDS011;17777;48.770;8.944;2024-03-23T03:11:20;1.65;;;1.25;;
31128;SDS011;17777;48.770;8.944;2024-03-23T03:13:46;1.85;;;1.30;;
31128;SDS011;17777;48.770;8.944;2024-03-23T03:16:12;5.65;;;1.73;;
31128;SDS011;17777;48.770;8.944;2024-03-23T03:18:38;1.90;;;1.30;;
31128;SDS011;17777;48.770;8.944;2024-03-23T03:21:05;1.83;;;1.23;;
31128;SDS011;17777;48.770;8.944;2024-03-23T03:23:38;2.17;;;1.20;;
31128;SDS011;17777;48.770;8.944;2024-03-23T03:26:05;3.03;;;1.10;;
31128;SDS011;17777;48.770;8.944;2024-03-23T03:28:31;1.77;;;1.30;;
31128;SDS011;17777;48.770;8.944;2024-03-23T03:31:01;2.50;;;1.20;;
31128;SDS011;17777;48.770;8.944;2024-03-23T03:33:27;1.38;;;1.17;;
31128;SDS011;17777;48.770;8.944;2024-03-23T03:35:53;2.92;;;1.50;;
31128;SDS011;17777;48.770;8.944;2024-03-23T03:38:20;2.97;;;1.50;;
31128;SDS011;17777;48.770;8.944;2024-03-23T03:40:46;1.77;;;1.27;;
31128;SDS011;17777;48.770;8.944;2024-03-23T03:43:12;1.42;;;1.27;;
31128;SDS011;17777;48.770;8.944;2024-03-23T03:45:38;2.28;;;1.35;;
31128;SDS011;17777;48.770;8.944;2024-03-23T03:48:04;1.83;;;1.30;;
31128;SDS011;17777;48.770;8.944;2024-03-23T03:50:30;1.77;;;1.30;;
31128;SDS011;17777;48.770;8.944;2024-03-23T03:52:56;1.75;;;1.50;;
31128;SDS011;17777;48.770;8.944;2024-03-23T03:55:22;3.03;;;1.50;;
31128;SDS011;17777;48.770;8.944;2024-03-23T03:57:48;2.20;;;1.40;;
31128;SDS011;17777;48.770;8.944;2024-03-23T04:00:14;3.20;;;1.58;;
31128;SDS011;17777;48.770;8.944;2024-03-23T04:02:40;1.58;;;1.30;;
31128;SDS011;17777;48.770;8.944;2024-03-23T04:05:06;3.08;;;1.38;;
31128;SDS011;17777;48.770;8.944;2024-03-23T04:07:33;2.45;;;1.15;;
31128;SDS011;17777;48.770;8.944;2024-03-23T04:09:59;1.67;;;1.40;;
31128;SDS011;17777;48.770;8.944;2024-03-23T04:12:25;1.83;;;1.30;;
31128;SDS011;17777;48.770;8.944;2024-03-23T04:14:51;1.75;;;1.20;;
31128;SDS011;17777;48.770;8.944;2024-03-23T04:17:17;1.60;;;1.40;;
31128;SDS011;17777;48.770;8.944;2024-03-23T04:19:43;1.85;;;1.40;;
31128;SDS011;17777;48.770;8.944;2024-03-23T04:22:09;3.85;;;1.30;;
31128;SDS011;17777;48.770;8.944;2024-03-23T04:24:35;1.80;;;1.25;;
31128;SDS011;17777;48.770;8.944;2024-03-23T04:27:01;1.45;;;1.10;;
31128;SDS011;17777;48.770;8.944;2024-03-23T04:29:28;1.30;;;1.20;;
31128;SDS011;17777;48.770;8.944;2024-03-23T04:31:54;1.73;;;1.23;;
31128;SDS011;17777;48.770;8.944;2024-03-23T04:34:20;1.73;;;1.40;;
31128;SDS011;17777;48.770;8.944;2024-03-23T04:36:47;2.75;;;1.70;;
31128;SDS011;17777;48.770;8.944;2024-03-23T04:39:13;3.20;;;2.05;;
31128;SDS011;17777;48.770;8.944;2024-03-23T04:41:39;4.35;;;2.30;;
31128;SDS011;17777;48.770;8.944;2024-03-23T04:44:06;3.42;;;2.10;;
31128;SDS011;17777;48.770;8.944;2024-03-23T04:46:33;3.28;;;2.25;;
31128;SDS011;17777;48.770;8.944;2024-03-23T04:48:59;3.55;;;2.15;;
31128;SDS011;17777;48.770;8.944;2024-03-23T04:51:25;5.40;;;3.22;;
31128;SDS011;17777;48.770;8.944;2024-03-23T04:53:51;5.07;;;3.72;;
31128;SDS011;17777;48.770;8.944;2024-03-23T04:56:17;5.18;;;3.88;;
31128;SDS011;17777;48.770;8.944;2024-03-23T04:58:43;5.47;;;4.00;;
31128;SDS011;17777;48.770;8.944;2024-03-23T05:01:10;7.15;;;3.83;;
31128;SDS011;17777;48.770;8.944;2024-03-23T05:03:36;4.93;;;3.92;;
31128;SDS011;17777;48.770;8.944;2024-03-23T05:06:02;5.80;;;4.05;;
31128;SDS011;17777;48.770;8.944;2024-03-23T05:08:30;6.50;;;4.43;;
31128;SDS011;17777;48.770;8.944;2024-03-23T05:10:56;7.20;;;4.85;;
31128;SDS011;17777;48.770;8.944;2024-03-23T05:13:21;6.72;;;4.72;;
31128;SDS011;17777;48.770;8.944;2024-03-23T05:15:52;4.78;;;4.10;;
31128;SDS011;17777;48.770;8.944;2024-03-23T05:18:19;5.53;;;4.43;;
31128;SDS011;17777;48.770;8.944;2024-03-23T05:20:45;4.90;;;4.07;;
31128;SDS011;17777;48.770;8.944;2024-03-23T05:23:11;5.43;;;4.25;;
31128;SDS011;17777;48.770;8.944;2024-03-23T05:25:36;5.90;;;4.70;;
31128;SDS011;17777;48.770;8.944;2024-03-23T05:28:02;6.28;;;4.30;;
31128;SDS011;17777;48.770;8.944;2024-03-23T05:30:28;4.97;;;4.40;;
31128;SDS011;17777;48.770;8.944;2024-03-23T05:32:54;6.25;;;4.57;;
31128;SDS011;17777;48.770;8.944;2024-03-23T05:35:20;5.70;;;4.70;;
31128;SDS011;17777;48.770;8.944;2024-03-23T05:37:46;4.55;;;3.80;;
31128;SDS011;17777;48.770;8.944;2024-03-23T05:40:12;4.80;;;3.63;;
31128;SDS011;17777;48.770;8.944;2024-03-23T05:42:40;3.53;;;3.13;;
31128;SDS011;17777;48.770;8.944;2024-03-23T05:45:06;4.35;;;3.60;;
31128;SDS011;17777;48.770;8.944;2024-03-23T05:47:33;4.38;;;3.40;;
31128;SDS011;17777;48.770;8.944;2024-03-23T05:49:59;5.20;;;3.03;;
31128;SDS011;17777;48.770;8.944;2024-03-23T05:52:25;3.60;;;2.92;;
31128;SDS011;17777;48.770;8.944;2024-03-23T05:54:51;3.53;;;2.92;;
31128;SDS011;17777;48.770;8.944;2024-03-23T05:57:17;5.38;;;2.70;;
31128;SDS011;17777;48.770;8.944;2024-03-23T05:59:44;2.63;;;2.42;;
31128;SDS011;17777;48.770;8.944;2024-03-23T06:02:09;2.10;;;1.90;;
31128;SDS011;17777;48.770;8.944;2024-03-23T06:04:35;2.03;;;1.83;;
31128;SDS011;17777;48.770;8.944;2024-03-23T06:07:02;1.67;;;1.38;;
31128;SDS011;17777;48.770;8.944;2024-03-23T06:09:31;1.50;;;1.17;;
31128;SDS011;17777;48.770;8.944;2024-03-23T06:11:57;1.73;;;1.00;;
31128;SDS011;17777;48.770;8.944;2024-03-23T06:14:23;1.27;;;1.17;;
31128;SDS011;17777;48.770;8.944;2024-03-23T06:16:49;0.80;;;0.80;;
31128;SDS011;17777;48.770;8.944;2024-03-23T06:19:15;1.08;;;0.90;;
31128;SDS011;17777;48.770;8.944;2024-03-23T06:21:44;0.57;;;0.57;;
31128;SDS011;17777;48.770;8.944;2024-03-23T06:24:10;1.00;;;0.82;;
31128;SDS011;17777;48.770;8.944;2024-03-23T06:26:37;0.40;;;0.40;;
31128;SDS011;17777;48.770;8.944;2024-03-23T06:29:03;0.38;;;0.38;;
31128;SDS011;17777;48.770;8.944;2024-03-23T06:31:30;0.75;;;0.40;;
31128;SDS011;17777;48.770;8.944;2024-03-23T06:33:56;0.70;;;0.30;;
31128;SDS011;17777;48.770;8.944;2024-03-23T06:36:22;0.40;;;0.40;;
31128;SDS011;17777;48.770;8.944;2024-03-23T06:38:48;0.38;;;0.30;;
31128;SDS011;17777;48.770;8.944;2024-03-23T06:41:13;0.30;;;0.30;;
31128;SDS011;17777;48.770;8.944;2024-03-23T06:43:40;0.20;;;0.20;;
31128;SDS011;17777;48.770;8.944;2024-03-23T06:46:05;0.22;;;0.20;;
31128;SDS011;17777;48.770;8.944;2024-03-23T06:48:31;0.30;;;0.30;;
31128;SDS011;17777;48.770;8.944;2024-03-23T06:50:57;0.20;;;0.20;;
31128;SDS011;17777;48.770;8.944;2024-03-23T06:53:23;0.30;;;0.30;;
31128;SDS011;17777;48.770;8.944;2024-03-23T06:55:53;0.30;;;0.30;;
31128;SDS011;17777;48.770;8.944;2024-03-23T06:58:19;0.25;;;0.25;;
31128;SDS011;17777;48.770;8.944;2024-03-23T07:00:46;0.20;;;0.20;;
31128;SDS011;17777;48.770;8.944;2024-03-23T07:03:12;0.20;;;0.20;;
31128;SDS011;17777;48.770;8.944;2024-03-23T07:05:38;0.20;;;0.20;;
31128;SDS011;17777;48.770;8.944;2024-03-23T07:08:03;0.30;;;0.30;;
31128;SDS011;17777;48.770;8.944;2024-03-23T07:10:30;0.30;;;0.30;;
31128;SDS011;17777;48.770;8.944;2024-03-23T07:12:56;0.20;;;0.20;;
31128;SDS011;17777;48.770;8.944;2024-03-23T07:15:22;0.55;;;0.20;;
31128;SDS011;17777;48.770;8.944;2024-03-23T07:17:47;0.30;;;0.30;;
31128;SDS011;17777;48.770;8.944;2024-03-23T07:20:13;0.30;;;0.30;;
31128;SDS011;17777;48.770;8.944;2024-03-23T07:22:39;0.20;;;0.20;;
31128;SDS011;17777;48.770;8.944;2024-03-23T07:25:05;0.60;;;0.40;;
31128;SDS011;17777;48.770;8.944;2024-03-23T07:27:32;0.40;;;0.30;;
31128;SDS011;17777;48.770;8.944;2024-03-23T07:29:58;0.20;;;0.20;;
31128;SDS011;17777;48.770;8.944;2024-03-23T07:32:26;0.20;;;0.20;;
31128;SDS011;17777;48.770;8.944;2024-03-23T07:34:52;0.20;;;0.20;;
31128;SDS011;17777;48.770;8.944;2024-03-23T07:37:18;0.57;;;0.38;;
31128;SDS011;17777;48.770;8.944;2024-03-23T07:39:44;0.30;;;0.28;;
31128;SDS011;17777;48.770;8.944;2024-03-23T07:42:09;1.63;;;0.40;;
31128;SDS011;17777;48.770;8.944;2024-03-23T07:44:35;0.30;;;0.30;;
31128;SDS011;17777;48.770;8.944;2024-03-23T07:47:01;1.50;;;0.35;;
31128;SDS011;17777;48.770;8.944;2024-03-23T07:49:27;0.38;;;0.32;;
31128;SDS011;17777;48.770;8.944;2024-03-23T07:51:53;0.30;;;0.30;;
31128;SDS011;17777;48.770;8.944;2024-03-23T07:54:18;0.22;;;0.22;;
31128;SDS011;17777;48.770;8.944;2024-03-23T07:56:44;0.30;;;0.30;;
31128;SDS011;17777;48.770;8.944;2024-03-23T07:59:10;0.20;;;0.20;;
31128;SDS011;17777;48.770;8.944;2024-03-23T08:01:36;0.20;;;0.20;;
31128;SDS011;17777;48.770;8.944;2024-03-23T08:04:02;0.20;;;0.20;;
31128;SDS011;17777;48.770;8.944;2024-03-23T08:06:28;0.30;;;0.30;;
31128;SDS011;17777;48.770;8.944;2024-03-23T08:08:57;0.50;;;0.30;;
31128;SDS011;17777;48.770;8.944;2024-03-23T08:11:29;0.30;;;0.30;;
31128;SDS011;17777;48.770;8.944;2024-03-23T08:13:57;0.30;;;0.30;;
31128;SDS011;17777;48.770;8.944;2024-03-23T08:16:23;0.40;;;0.40;;
31128;SDS011;17777;48.770;8.944;2024-03-23T08:18:53;0.30;;;0.30;;
31128;SDS011;17777;48.770;8.944;2024-03-23T08:21:22;0.50;;;0.50;;
31128;SDS011;17777;48.770;8.944;2024-03-23T08:23:50;0.50;;;0.50;;
31128;SDS011;17777;48.770;8.944;2024-03-23T08:26:16;0.90;;;0.57;;
31128;SDS011;17777;48.770;8.944;2024-03-23T08:28:44;0.82;;;0.70;;
31128;SDS011;17777;48.770;8.944;2024-03-23T08:31:11;1.02;;;0.50;;
31128;SDS011;17777;48.770;8.944;2024-03-23T08:33:38;0.60;;;0.60;;
31128;SDS011;17777;48.770;8.944;2024-03-23T08:36:08;0.60;;;0.60;;
31128;SDS011;17777;48.770;8.944;2024-03-23T08:38:39;1.30;;;0.80;;
31128;SDS011;17777;48.770;8.944;2024-03-23T08:41:06;1.85;;;1.05;;
31128;SDS011;17777;48.770;8.944;2024-03-23T08:43:37;0.77;;;0.60;;
31128;SDS011;17777;48.770;8.944;2024-03-23T08:46:06;0.70;;;0.70;;
31128;SDS011;17777;48.770;8.944;2024-03-23T08:48:34;0.68;;;0.65;;
31128;SDS011;17777;48.770;8.944;2024-03-23T08:51:02;0.90;;;0.60;;
31128;SDS011;17777;48.770;8.944;2024-03-23T08:53:29;1.00;;;0.80;;
31128;SDS011;17777;48.770;8.944;2024-03-23T08:55:56;1.58;;;0.90;;
31128;SDS011;17777;48.770;8.944;2024-03-23T08:58:26;2.75;;;1.20;;
31128;SDS011;17777;48.770;8.944;2024-03-23T09:00:53;1.95;;;0.98;;
31128;SDS011;17777;48.770;8.944;2024-03-23T09:03:25;3.60;;;1.45;;
31128;SDS011;17777;48.770;8.944;2024-03-23T09:05:51;3.38;;;1.55;;
31128;SDS011;17777;48.770;8.944;2024-03-23T09:08:17;2.70;;;1.45;;
31128;SDS011;17777;48.770;8.944;2024-03-23T09:10:44;3.33;;;1.55;;
31128;SDS011;17777;48.770;8.944;2024-03-23T09:13:10;3.60;;;1.70;;
31128;SDS011;17777;48.770;8.944;2024-03-23T09:15:36;3.15;;;1.20;;
31128;SDS011;17777;48.770;8.944;2024-03-23T09:18:12;3.92;;;1.63;;
31128;SDS011;17777;48.770;8.944;2024-03-23T09:20:38;3.30;;;1.60;;
31128;SDS011;17777;48.770;8.944;2024-03-23T09:23:04;4.50;;;1.67;;
31128;SDS011;17777;48.770;8.944;2024-03-23T09:25:30;6.15;;;2.15;;
31128;SDS011;17777;48.770;8.944;2024-03-23T09:27:56;4.60;;;2.10;;
31128;SDS011;17777;48.770;8.944;2024-03-23T09:30:21;4.20;;;2.47;;
31128;SDS011;17777;48.770;8.944;2024-03-23T09:32:47;3.30;;;1.83;;
31128;SDS011;17777;48.770;8.944;2024-03-23T09:35:13;6.68;;;2.35;;
31128;SDS011;17777;48.770;8.944;2024-03-23T09:37:39;4.35;;;1.88;;
31128;SDS011;17777;48.770;8.944;2024-03-23T09:40:05;3.15;;;1.75;;
31128;SDS011;17777;48.770;8.944;2024-03-23T09:42:35;5.13;;;2.20;;
31128;SDS011;17777;48.770;8.944;2024-03-23T09:45:02;2.35;;;1.50;;
31128;SDS011;17777;48.770;8.944;2024-03-23T09:47:32;3.88;;;2.00;;
31128;SDS011;17777;48.770;8.944;2024-03-23T09:49:59;2.83;;;1.58;;
31128;SDS011;17777;48.770;8.944;2024-03-23T09:52:26;5.28;;;1.63;;
31128;SDS011;17777;48.770;8.944;2024-03-23T09:54:51;6.13;;;1.80;;
31128;SDS011;17777;48.770;8.944;2024-03-23T09:57:18;4.15;;;1.60;;
31128;SDS011;17777;48.770;8.944;2024-03-23T09:59:44;5.00;;;1.70;;
31128;SDS011;17777;48.770;8.944;2024-03-23T10:02:10;4.22;;;1.75;;
31128;SDS011;17777;48.770;8.944;2024-03-23T10:04:38;5.30;;;1.85;;
31128;SDS011;17777;48.770;8.944;2024-03-23T10:09:38;5.50;;;1.85;;
31128;SDS011;17777;48.770;8.944;2024-03-23T10:12:08;2.95;;;1.30;;
31128;SDS011;17777;48.770;8.944;2024-03-23T10:14:44;4.95;;;1.90;;
31128;SDS011;17777;48.770;8.944;2024-03-23T10:17:18;4.78;;;1.85;;
31128;SDS011;17777;48.770;8.944;2024-03-23T10:19:48;6.22;;;2.72;;
31128;SDS011;17777;48.770;8.944;2024-03-23T10:22:17;5.32;;;2.10;;
31128;SDS011;17777;48.770;8.944;2024-03-23T10:24:45;7.10;;;2.63;;
31128;SDS011;17777;48.770;8.944;2024-03-23T10:27:18;6.57;;;3.00;;
31128;SDS011;17777;48.770;8.944;2024-03-23T10:32:12;4.60;;;2.13;;
31128;SDS011;17777;48.770;8.944;2024-03-23T10:34:39;6.47;;;2.25;;
31128;SDS011;17777;48.770;8.944;2024-03-23T10:37:06;5.25;;;2.17;;
31128;SDS011;17777;48.770;8.944;2024-03-23T10:39:33;5.20;;;2.00;;
31128;SDS011;17777;48.770;8.944;2024-03-23T10:42:03;4.80;;;2.30;;
31128;SDS011;17777;48.770;8.944;2024-03-23T10:44:34;2.78;;;1.70;;
31128;SDS011;17777;48.770;8.944;2024-03-23T10:47:01;3.05;;;1.05;;
31128;SDS011;17777;48.770;8.944;2024-03-23T10:49:29;1.85;;;1.25;;
31128;SDS011;17777;48.770;8.944;2024-03-23T10:51:58;1.13;;;0.85;;
31128;SDS011;17777;48.770;8.944;2024-03-23T10:54:31;2.72;;;1.33;;
31128;SDS011;17777;48.770;8.944;2024-03-23T10:59:42;3.33;;;1.25;;
31128;SDS011;17777;48.770;8.944;2024-03-23T11:02:18;3.92;;;1.35;;
31128;SDS011;17777;48.770;8.944;2024-03-23T11:04:45;2.42;;;1.17;;
31128;SDS011;17777;48.770;8.944;2024-03-23T11:09:48;2.45;;;1.40;;
31128;SDS011;17777;48.770;8.944;2024-03-23T11:17:18;3.58;;;1.20;;
31128;SDS011;17777;48.770;8.944;2024-03-23T11:20:01;2.88;;;1.00;;
31128;SDS011;17777;48.770;8.944;2024-03-23T11:27:45;2.17;;;1.33;;
31128;SDS011;17777;48.770;8.944;2024-03-23T11:30:12;2.13;;;1.17;;
31128;SDS011;17777;48.770;8.944;2024-03-23T11:32:48;1.40;;;0.63;;
31128;SDS011;17777;48.770;8.944;2024-03-23T11:38:01;2.90;;;0.90;;
31128;SDS011;17777;48.770;8.944;2024-03-23T11:40:34;2.83;;;0.98;;
31128;SDS011;17777;48.770;8.944;2024-03-23T11:43:08;3.00;;;0.90;;
31128;SDS011;17777;48.770;8.944;2024-03-23T11:45:50;3.05;;;1.05;;
31128;SDS011;17777;48.770;8.944;2024-03-23T11:48:18;2.83;;;0.82;;
31128;SDS011;17777;48.770;8.944;2024-03-23T11:50:49;1.52;;;0.65;;
31128;SDS011;17777;48.770;8.944;2024-03-23T11:53:20;3.28;;;1.10;;
31128;SDS011;17777;48.770;8.944;2024-03-23T11:55:51;2.33;;;0.93;;
31128;SDS011;17777;48.770;8.944;2024-03-23T11:58:18;2.97;;;0.90;;
31128;SDS011;17777;48.770;8.944;2024-03-23T12:03:27;2.40;;;1.00;;
31128;SDS011;17777;48.770;8.944;2024-03-23T12:05:54;9.13;;;1.45;;
31128;SDS011;17777;48.770;8.944;2024-03-23T12:08:23;4.38;;;1.35;;
31128;SDS011;17777;48.770;8.944;2024-03-23T12:11:04;4.95;;;1.20;;
31128;SDS011;17777;48.770;8.944;2024-03-23T12:13:38;5.70;;;1.30;;
31128;SDS011;17777;48.770;8.944;2024-03-23T12:16:16;6.53;;;1.40;;
31128;SDS011;17777;48.770;8.944;2024-03-23T12:18:46;2.55;;;1.00;;
31128;SDS011;17777;48.770;8.944;2024-03-23T12:21:17;3.42;;;1.30;;
31128;SDS011;17777;48.770;8.944;2024-03-23T12:23:43;3.45;;;1.30;;
31128;SDS011;17777;48.770;8.944;2024-03-23T12:26:10;3.83;;;1.50;;
31128;SDS011;17777;48.770;8.944;2024-03-23T12:28:37;6.07;;;1.63;;
31128;SDS011;17777;48.770;8.944;2024-03-23T12:31:03;2.05;;;0.90;;
31128;SDS011;17777;48.770;8.944;2024-03-23T12:33:29;5.15;;;1.10;;
31128;SDS011;17777;48.770;8.944;2024-03-23T12:35:55;7.05;;;1.42;;
31128;SDS011;17777;48.770;8.944;2024-03-23T12:38:21;7.43;;;1.38;;
31128;SDS011;17777;48.770;8.944;2024-03-23T12:40:47;6.07;;;1.30;;
31128;SDS011;17777;48.770;8.944;2024-03-23T12:43:16;4.00;;;1.35;;
31128;SDS011;17777;48.770;8.944;2024-03-23T12:45:46;4.47;;;1.27;;
31128;SDS011;17777;48.770;8.944;2024-03-23T12:48:12;3.25;;;1.15;;
31128;SDS011;17777;48.770;8.944;2024-03-23T12:50:38;3.25;;;1.15;;
31128;SDS011;17777;48.770;8.944;2024-03-23T12:53:04;6.43;;;1.52;;
31128;SDS011;17777;48.770;8.944;2024-03-23T12:55:30;4.82;;;1.52;;
31128;SDS011;17777;48.770;8.944;2024-03-23T12:57:55;4.15;;;1.40;;
31128;SDS011;17777;48.770;8.944;2024-03-23T13:00:21;3.60;;;1.27;;
31128;SDS011;17777;48.770;8.944;2024-03-23T13:02:48;5.53;;;1.60;;
31128;SDS011;17777;48.770;8.944;2024-03-23T13:05:14;4.68;;;1.38;;
31128;SDS011;17777;48.770;8.944;2024-03-23T13:07:40;4.63;;;1.52;;
31128;SDS011;17777;48.770;8.944;2024-03-23T13:10:05;4.20;;;1.20;;
31128;SDS011;17777;48.770;8.944;2024-03-23T13:12:32;5.22;;;1.58;;
31128;SDS011;17777;48.770;8.944;2024-03-23T13:14:59;4.32;;;1.30;;
31128;SDS011;17777;48.770;8.944;2024-03-23T13:17:28;3.15;;;1.00;;
31128;SDS011;17777;48.770;8.944;2024-03-23T13:19:54;4.22;;;1.10;;
31128;SDS011;17777;48.770;8.944;2024-03-23T13:22:21;4.65;;;1.20;;
31128;SDS011;17777;48.770;8.944;2024-03-23T13:24:47;2.45;;;0.90;;
31128;SDS011;17777;48.770;8.944;2024-03-23T13:27:13;3.60;;;1.08;;
31128;SDS011;17777;48.770;8.944;2024-03-23T13:29:38;3.10;;;0.85;;
31128;SDS011;17777;48.770;8.944;2024-03-23T13:32:04;1.23;;;0.63;;
31128;SDS011;17777;48.770;8.944;2024-03-23T13:34:31;3.17;;;1.13;;
31128;SDS011;17777;48.770;8.944;2024-03-23T13:36:58;2.80;;;0.93;;
31128;SDS011;17777;48.770;8.944;2024-03-23T13:39:24;3.97;;;1.30;;
31128;SDS011;17777;48.770;8.944;2024-03-23T13:41:52;2.47;;;0.88;;
31128;SDS011;17777;48.770;8.944;2024-03-23T13:44:19;2.08;;;0.80;;
31128;SDS011;17777;48.770;8.944;2024-03-23T13:46:45;2.22;;;1.13;;
31128;SDS011;17777;48.770;8.944;2024-03-23T13:49:28;2.45;;;0.90;;
31128;SDS011;17777;48.770;8.944;2024-03-23T13:51:56;3.22;;;0.88;;
31128;SDS011;17777;48.770;8.944;2024-03-23T13:54:23;2.67;;;1.00;;
31128;SDS011;17777;48.770;8.944;2024-03-23T13:56:50;5.93;;;1.20;;
31128;SDS011;17777;48.770;8.944;2024-03-23T13:59:17;3.67;;;1.25;;
31128;SDS011;17777;48.770;8.944;2024-03-23T14:01:43;1.50;;;0.65;;
31128;SDS011;17777;48.770;8.944;2024-03-23T14:04:13;1.38;;;0.70;;
31128;SDS011;17777;48.770;8.944;2024-03-23T14:06:41;1.52;;;0.50;;
31128;SDS011;17777;48.770;8.944;2024-03-23T14:09:10;1.52;;;0.40;;
31128;SDS011;17777;48.770;8.944;2024-03-23T14:11:40;1.15;;;0.50;;
31128;SDS011;17777;48.770;8.944;2024-03-23T14:14:08;0.95;;;0.50;;
31128;SDS011;17777;48.770;8.944;2024-03-23T14:16:34;1.13;;;0.43;;
31128;SDS011;17777;48.770;8.944;2024-03-23T14:19:00;0.95;;;0.50;;
31128;SDS011;17777;48.770;8.944;2024-03-23T14:21:26;1.02;;;0.32;;
31128;SDS011;17777;48.770;8.944;2024-03-23T14:23:52;1.83;;;0.50;;
31128;SDS011;17777;48.770;8.944;2024-03-23T14:26:20;2.53;;;0.40;;
31128;SDS011;17777;48.770;8.944;2024-03-23T14:28:46;1.90;;;0.70;;
31128;SDS011;17777;48.770;8.944;2024-03-23T14:31:11;0.85;;;0.40;;
31128;SDS011;17777;48.770;8.944;2024-03-23T14:33:37;2.85;;;0.80;;
31128;SDS011;17777;48.770;8.944;2024-03-23T14:36:06;2.33;;;0.57;;
31128;SDS011;17777;48.770;8.944;2024-03-23T14:38:32;1.45;;;0.50;;
31128;SDS011;17777;48.770;8.944;2024-03-23T14:40:58;2.95;;;0.82;;
31128;SDS011;17777;48.770;8.944;2024-03-23T14:43:25;1.20;;;0.65;;
31128;SDS011;17777;48.770;8.944;2024-03-23T14:46:07;2.30;;;0.90;;
31128;SDS011;17777;48.770;8.944;2024-03-23T14:48:34;1.80;;;0.80;;
31128;SDS011;17777;48.770;8.944;2024-03-23T14:51:00;0.88;;;0.40;;
31128;SDS011;17777;48.770;8.944;2024-03-23T14:53:29;3.17;;;0.73;;
31128;SDS011;17777;48.770;8.944;2024-03-23T14:55:56;1.83;;;0.60;;
31128;SDS011;17777;48.770;8.944;2024-03-23T14:58:22;3.13;;;0.70;;
31128;SDS011;17777;48.770;8.944;2024-03-23T15:00:49;1.90;;;0.60;;
31128;SDS011;17777;48.770;8.944;2024-03-23T15:03:16;1.48;;;0.63;;
31128;SDS011;17777;48.770;8.944;2024-03-23T15:05:56;3.00;;;0.60;;
31128;SDS011;17777;48.770;8.944;2024-03-23T15:08:23;2.25;;;0.57;;
31128;SDS011;17777;48.770;8.944;2024-03-23T15:10:49;0.95;;;0.50;;
31128;SDS011;17777;48.770;8.944;2024-03-23T15:13:16;1.83;;;0.63;;
31128;SDS011;17777;48.770;8.944;2024-03-23T15:15:42;2.15;;;0.70;;
31128;SDS011;17777;48.770;8.944;2024-03-23T15:18:10;2.78;;;0.60;;
31128;SDS011;17777;48.770;8.944;2024-03-23T15:20:37;0.82;;;0.47;;
31128;SDS011;17777;48.770;8.944;2024-03-23T15:23:04;1.13;;;0.50;;
31128;SDS011;17777;48.770;8.944;2024-03-23T15:25:30;3.67;;;0.93;;
31128;SDS011;17777;48.770;8.944;2024-03-23T15:27:57;3.17;;;0.60;;
31128;SDS011;17777;48.770;8.944;2024-03-23T15:30:24;2.30;;;0.50;;
31128;SDS011;17777;48.770;8.944;2024-03-23T15:32:51;3.30;;;0.80;;
31128;SDS011;17777;48.770;8.944;2024-03-23T15:35:17;1.20;;;0.50;;
31128;SDS011;17777;48.770;8.944;2024-03-23T15:37:44;4.22;;;0.70;;
31128;SDS011;17777;48.770;8.944;2024-03-23T15:40:10;1.50;;;0.70;;
31128;SDS011;17777;48.770;8.944;2024-03-23T15:42:38;1.90;;;0.60;;
31128;SDS011;17777;48.770;8.944;2024-03-23T15:45:05;0.63;;;0.55;;
31128;SDS011;17777;48.770;8.944;2024-03-23T15:47:32;0.85;;;0.47;;
31128;SDS011;17777;48.770;8.944;2024-03-23T15:49:59;2.30;;;0.80;;
31128;SDS011;17777;48.770;8.944;2024-03-23T15:52:25;2.47;;;0.70;;
31128;SDS011;17777;48.770;8.944;2024-03-23T15:54:51;3.13;;;0.70;;
31128;SDS011;17777;48.770;8.944;2024-03-23T15:57:17;0.75;;;0.43;;
31128;SDS011;17777;48.770;8.944;2024-03-23T15:59:43;2.05;;;0.43;;
31128;SDS011;17777;48.770;8.944;2024-03-23T16:02:09;1.05;;;0.70;;
31128;SDS011;17777;48.770;8.944;2024-03-23T16:04:35;1.10;;;0.40;;
31128;SDS011;17777;48.770;8.944;2024-03-23T16:07:01;0.77;;;0.38;;